sensor_id;sensor_type;location;lat;lon;timestamp;temperature;humidity
37410;DHT22;23275;48.914;12.566;2023-06-24T00:01:14;15.30;99.90
37410;DHT22;23275;48.914;12.566;2023-06-24T00:03:40;15.30;99.90
37410;DHT22;23275;48.914;12.566;2023-06-24T00:06:07;15.20;99.90
37410;DHT22;23275;48.914;12.566;2023-06-24T00:08:32;15.20;99.90
37410;DHT22;23275;48.914;12.566;2023-06-24T00:11:03;15.20;99.90
37410;DHT22;23275;48.914;12.566;2023-06-24T00:13:28;15.20;99.90
37410;DHT22;23275;48.914;12.566;2023-06-24T00:15:54;15.20;99.90
37410;DHT22;23275;48.914;12.566;2023-06-24T00:18:20;15.20;99.90
37410;DHT22;23275;48.914;12.566;2023-06-24T00:20:50;15.20;99.90
37410;DHT22;23275;48.914;12.566;2023-06-24T00:23:17;15.20;99.90
37410;DHT22;23275;48.914;12.566;2023-06-24T00:25:46;15.20;99.90
37410;DHT22;23275;48.914;12.566;2023-06-24T00:28:11;15.20;99.90
37410;DHT22;23275;48.914;12.566;2023-06-24T00:30:37;15.20;99.90
37410;DHT22;23275;48.914;12.566;2023-06-24T00:33:02;15.30;99.90
37410;DHT22;23275;48.914;12.566;2023-06-24T00:35:28;15.30;99.90
37410;DHT22;23275;48.914;12.566;2023-06-24T00:37:54;15.30;99.90
37410;DHT22;23275;48.914;12.566;2023-06-24T00:40:24;15.30;99.90
37410;DHT22;23275;48.914;12.566;2023-06-24T00:42:49;15.30;99.90
37410;DHT22;23275;48.914;12.566;2023-06-24T00:45:15;15.30;99.90
37410;DHT22;23275;48.914;12.566;2023-06-24T00:47:43;15.30;99.90
37410;DHT22;23275;48.914;12.566;2023-06-24T00:50:09;15.30;99.90
37410;DHT22;23275;48.914;12.566;2023-06-24T00:52:37;15.30;99.90
37410;DHT22;23275;48.914;12.566;2023-06-24T00:55:10;15.30;99.90
37410;DHT22;23275;48.914;12.566;2023-06-24T00:57:38;15.30;99.90
37410;DHT22;23275;48.914;12.566;2023-06-24T01:00:05;15.40;99.90
37410;DHT22;23275;48.914;12.566;2023-06-24T01:02:35;15.40;99.90
37410;DHT22;23275;48.914;12.566;2023-06-24T01:05:03;15.40;99.90
37410;DHT22;23275;48.914;12.566;2023-06-24T01:07:31;15.40;99.90
37410;DHT22;23275;48.914;12.566;2023-06-24T01:09:57;15.40;99.90
37410;DHT22;23275;48.914;12.566;2023-06-24T01:12:24;15.40;99.90
37410;DHT22;23275;48.914;12.566;2023-06-24T01:14:49;15.40;99.90
37410;DHT22;23275;48.914;12.566;2023-06-24T01:17:19;15.40;99.90
37410;DHT22;23275;48.914;12.566;2023-06-24T01:25:41;15.40;99.90
37410;DHT22;23275;48.914;12.566;2023-06-24T01:34:10;15.40;99.90
37410;DHT22;23275;48.914;12.566;2023-06-24T01:36:38;15.40;99.90
37410;DHT22;23275;48.914;12.566;2023-06-24T01:39:08;15.40;99.90
37410;DHT22;23275;48.914;12.566;2023-06-24T01:41:40;15.40;99.90
37410;DHT22;23275;48.914;12.566;2023-06-24T01:44:09;15.40;99.90
37410;DHT22;23275;48.914;12.566;2023-06-24T01:46:35;15.40;99.90
37410;DHT22;23275;48.914;12.566;2023-06-24T01:49:04;15.40;99.90
37410;DHT22;23275;48.914;12.566;2023-06-24T01:51:32;15.40;99.90
37410;DHT22;23275;48.914;12.566;2023-06-24T01:54:06;15.50;99.90
37410;DHT22;23275;48.914;12.566;2023-06-24T01:56:33;15.50;99.90
37410;DHT22;23275;48.914;12.566;2023-06-24T01:59:02;15.50;99.90
37410;DHT22;23275;48.914;12.566;2023-06-24T02:01:35;15.50;99.90
37410;DHT22;23275;48.914;12.566;2023-06-24T02:04:02;15.50;99.90
37410;DHT22;23275;48.914;12.566;2023-06-24T02:06:29;15.50;99.90
37410;DHT22;23275;48.914;12.566;2023-06-24T02:08:56;15.50;99.90
37410;DHT22;23275;48.914;12.566;2023-06-24T02:11:24;15.50;99.90
37410;DHT22;23275;48.914;12.566;2023-06-24T02:13:51;15.50;99.90
37410;DHT22;23275;48.914;12.566;2023-06-24T02:16:20;15.50;99.90
37410;DHT22;23275;48.914;12.566;2023-06-24T02:18:46;15.50;99.90
37410;DHT22;23275;48.914;12.566;2023-06-24T02:21:15;15.40;99.90
37410;DHT22;23275;48.914;12.566;2023-06-24T02:23:41;15.40;99.90
37410;DHT22;23275;48.914;12.566;2023-06-24T02:26:07;15.40;99.90
37410;DHT22;23275;48.914;12.566;2023-06-24T02:28:34;15.40;99.90
37410;DHT22;23275;48.914;12.566;2023-06-24T02:31:00;15.40;99.90
37410;DHT22;23275;48.914;12.566;2023-06-24T02:33:26;15.40;99.90
37410;DHT22;23275;48.914;12.566;2023-06-24T02:35:52;15.40;99.90
37410;DHT22;23275;48.914;12.566;2023-06-24T02:38:18;15.50;99.90
37410;DHT22;23275;48.914;12.566;2023-06-24T02:40:45;15.50;99.90
37410;DHT22;23275;48.914;12.566;2023-06-24T02:43:11;15.50;99.90
37410;DHT22;23275;48.914;12.566;2023-06-24T02:45:36;15.50;99.90
37410;DHT22;23275;48.914;12.566;2023-06-24T02:48:03;15.50;99.90
37410;DHT22;23275;48.914;12.566;2023-06-24T02:50:30;15.50;99.90
37410;DHT22;23275;48.914;12.566;2023-06-24T02:52:56;15.50;99.90
37410;DHT22;23275;48.914;12.566;2023-06-24T02:55:23;15.50;99.90
37410;DHT22;23275;48.914;12.566;2023-06-24T02:57:49;15.50;99.90
37410;DHT22;23275;48.914;12.566;2023-06-24T03:00:16;15.50;99.90
37410;DHT22;23275;48.914;12.566;2023-06-24T03:02:43;15.60;99.90
37410;DHT22;23275;48.914;12.566;2023-06-24T03:05:10;15.50;99.90
37410;DHT22;23275;48.914;12.566;2023-06-24T03:07:37;15.50;99.90
37410;DHT22;23275;48.914;12.566;2023-06-24T03:10:04;15.60;99.90
37410;DHT22;23275;48.914;12.566;2023-06-24T03:12:31;15.50;99.90
37410;DHT22;23275;48.914;12.566;2023-06-24T03:14:57;15.50;99.90
37410;DHT22;23275;48.914;12.566;2023-06-24T03:17:22;15.50;99.90
37410;DHT22;23275;48.914;12.566;2023-06-24T03:19:48;15.50;99.90
37410;DHT22;23275;48.914;12.566;2023-06-24T03:22:13;15.50;99.90
37410;DHT22;23275;48.914;12.566;2023-06-24T03:24:39;15.50;99.90
37410;DHT22;23275;48.914;12.566;2023-06-24T03:27:04;15.50;99.90
37410;DHT22;23275;48.914;12.566;2023-06-24T03:29:30;15.60;99.90
37410;DHT22;23275;48.914;12.566;2023-06-24T03:31:56;15.50;99.90
37410;DHT22;23275;48.914;12.566;2023-06-24T03:34:21;15.60;99.90
37410;DHT22;23275;48.914;12.566;2023-06-24T03:36:47;15.60;99.90
37410;DHT22;23275;48.914;12.566;2023-06-24T03:39:12;15.60;99.90
37410;DHT22;23275;48.914;12.566;2023-06-24T03:41:38;15.50;99.90
37410;DHT22;23275;48.914;12.566;2023-06-24T03:44:04;15.50;99.90
37410;DHT22;23275;48.914;12.566;2023-06-24T03:46:30;15.50;99.90
37410;DHT22;23275;48.914;12.566;2023-06-24T03:48:58;15.60;99.90
37410;DHT22;23275;48.914;12.566;2023-06-24T03:51:26;15.60;99.90
37410;DHT22;23275;48.914;12.566;2023-06-24T03:53:52;15.60;99.90
37410;DHT22;23275;48.914;12.566;2023-06-24T03:56:18;15.60;99.90
37410;DHT22;23275;48.914;12.566;2023-06-24T03:58:43;15.60;99.90
37410;DHT22;23275;48.914;12.566;2023-06-24T04:01:09;15.60;99.90
37410;DHT22;23275;48.914;12.566;2023-06-24T04:03:35;15.60;99.90
37410;DHT22;23275;48.914;12.566;2023-06-24T04:06:01;15.60;99.90
37410;DHT22;23275;48.914;12.566;2023-06-24T04:08:29;15.60;99.90
37410;DHT22;23275;48.914;12.566;2023-06-24T04:10:56;15.60;99.90
37410;DHT22;23275;48.914;12.566;2023-06-24T04:13:21;15.60;99.90
37410;DHT22;23275;48.914;12.566;2023-06-24T04:15:47;15.60;99.90
37410;DHT22;23275;48.914;12.566;2023-06-24T04:18:13;15.70;99.90
37410;DHT22;23275;48.914;12.566;2023-06-24T04:20:38;15.70;99.90
37410;DHT22;23275;48.914;12.566;2023-06-24T04:23:04;15.70;99.90
37410;DHT22;23275;48.914;12.566;2023-06-24T04:25:31;15.70;99.90
37410;DHT22;23275;48.914;12.566;2023-06-24T04:27:57;15.70;99.90
37410;DHT22;23275;48.914;12.566;2023-06-24T04:30:23;15.70;99.90
37410;DHT22;23275;48.914;12.566;2023-06-24T04:32:48;15.80;99.90
37410;DHT22;23275;48.914;12.566;2023-06-24T04:35:14;15.80;99.90
37410;DHT22;23275;48.914;12.566;2023-06-24T04:37:39;15.80;99.90
37410;DHT22;23275;48.914;12.566;2023-06-24T04:40:05;15.80;99.90
37410;DHT22;23275;48.914;12.566;2023-06-24T04:42:31;15.90;99.90
37410;DHT22;23275;48.914;12.566;2023-06-24T04:44:57;15.90;99.90
37410;DHT22;23275;48.914;12.566;2023-06-24T04:47:22;15.90;99.90
37410;DHT22;23275;48.914;12.566;2023-06-24T04:49:48;16.00;99.90
37410;DHT22;23275;48.914;12.566;2023-06-24T04:52:14;15.90;99.90
37410;DHT22;23275;48.914;12.566;2023-06-24T04:54:39;15.90;99.90
37410;DHT22;23275;48.914;12.566;2023-06-24T04:57:08;16.00;99.90
37410;DHT22;23275;48.914;12.566;2023-06-24T04:59:33;16.10;99.90
37410;DHT22;23275;48.914;12.566;2023-06-24T05:01:59;16.10;99.90
37410;DHT22;23275;48.914;12.566;2023-06-24T05:04:24;16.10;99.90
37410;DHT22;23275;48.914;12.566;2023-06-24T05:06:50;16.20;99.90
37410;DHT22;23275;48.914;12.566;2023-06-24T05:09:17;16.20;99.90
37410;DHT22;23275;48.914;12.566;2023-06-24T05:11:43;16.20;99.90
37410;DHT22;23275;48.914;12.566;2023-06-24T05:14:08;16.20;99.90
37410;DHT22;23275;48.914;12.566;2023-06-24T05:16:34;16.30;99.90
37410;DHT22;23275;48.914;12.566;2023-06-24T05:18:59;16.40;99.90
37410;DHT22;23275;48.914;12.566;2023-06-24T05:21:28;16.40;99.90
37410;DHT22;23275;48.914;12.566;2023-06-24T05:23:54;16.50;99.90
37410;DHT22;23275;48.914;12.566;2023-06-24T05:26:19;16.60;99.90
37410;DHT22;23275;48.914;12.566;2023-06-24T05:28:48;16.70;99.90
37410;DHT22;23275;48.914;12.566;2023-06-24T05:31:13;16.70;99.90
37410;DHT22;23275;48.914;12.566;2023-06-24T05:33:39;16.80;99.90
37410;DHT22;23275;48.914;12.566;2023-06-24T05:36:05;16.90;99.90
37410;DHT22;23275;48.914;12.566;2023-06-24T05:38:30;17.00;99.90
37410;DHT22;23275;48.914;12.566;2023-06-24T05:40:56;17.10;99.90
37410;DHT22;23275;48.914;12.566;2023-06-24T05:43:21;17.20;99.90
37410;DHT22;23275;48.914;12.566;2023-06-24T05:45:47;17.20;99.90
37410;DHT22;23275;48.914;12.566;2023-06-24T05:48:12;17.40;99.90
37410;DHT22;23275;48.914;12.566;2023-06-24T05:50:39;17.40;99.90
37410;DHT22;23275;48.914;12.566;2023-06-24T05:53:05;17.50;99.90
37410;DHT22;23275;48.914;12.566;2023-06-24T05:55:30;17.60;99.90
37410;DHT22;23275;48.914;12.566;2023-06-24T05:57:56;17.70;99.90
37410;DHT22;23275;48.914;12.566;2023-06-24T06:00:22;17.70;99.90
37410;DHT22;23275;48.914;12.566;2023-06-24T06:02:47;17.80;99.90
37410;DHT22;23275;48.914;12.566;2023-06-24T06:05:13;17.80;99.90
37410;DHT22;23275;48.914;12.566;2023-06-24T06:07:38;17.90;99.90
37410;DHT22;23275;48.914;12.566;2023-06-24T06:10:06;18.00;99.90
37410;DHT22;23275;48.914;12.566;2023-06-24T06:12:31;18.10;99.90
37410;DHT22;23275;48.914;12.566;2023-06-24T06:14:57;18.10;99.90
37410;DHT22;23275;48.914;12.566;2023-06-24T06:17:24;18.10;99.90
37410;DHT22;23275;48.914;12.566;2023-06-24T06:19:50;18.00;99.90
37410;DHT22;23275;48.914;12.566;2023-06-24T06:22:15;17.90;99.90
37410;DHT22;23275;48.914;12.566;2023-06-24T06:24:41;18.00;99.90
37410;DHT22;23275;48.914;12.566;2023-06-24T06:27:10;18.00;99.90
37410;DHT22;23275;48.914;12.566;2023-06-24T06:29:36;18.00;99.90
37410;DHT22;23275;48.914;12.566;2023-06-24T06:32:02;18.00;99.90
37410;DHT22;23275;48.914;12.566;2023-06-24T06:34:28;18.00;99.90
37410;DHT22;23275;48.914;12.566;2023-06-24T06:36:53;18.00;99.90
37410;DHT22;23275;48.914;12.566;2023-06-24T06:39:19;18.10;99.90
37410;DHT22;23275;48.914;12.566;2023-06-24T06:41:45;18.10;99.90
37410;DHT22;23275;48.914;12.566;2023-06-24T06:44:10;18.10;99.90
37410;DHT22;23275;48.914;12.566;2023-06-24T06:46:36;18.10;99.90
37410;DHT22;23275;48.914;12.566;2023-06-24T06:49:02;18.20;99.90
37410;DHT22;23275;48.914;12.566;2023-06-24T06:51:27;18.40;99.90
37410;DHT22;23275;48.914;12.566;2023-06-24T06:53:53;18.50;99.90
37410;DHT22;23275;48.914;12.566;2023-06-24T06:56:22;18.60;99.90
37410;DHT22;23275;48.914;12.566;2023-06-24T06:58:48;18.70;99.90
37410;DHT22;23275;48.914;12.566;2023-06-24T07:01:13;18.70;99.90
37410;DHT22;23275;48.914;12.566;2023-06-24T07:03:39;18.80;99.90
37410;DHT22;23275;48.914;12.566;2023-06-24T07:06:05;18.90;99.90
37410;DHT22;23275;48.914;12.566;2023-06-24T07:08:30;19.10;99.90
37410;DHT22;23275;48.914;12.566;2023-06-24T07:10:57;19.30;99.90
37410;DHT22;23275;48.914;12.566;2023-06-24T07:13:22;19.40;99.90
37410;DHT22;23275;48.914;12.566;2023-06-24T07:15:48;19.60;99.90
37410;DHT22;23275;48.914;12.566;2023-06-24T07:18:14;19.70;99.90
37410;DHT22;23275;48.914;12.566;2023-06-24T07:20:39;20.00;99.90
37410;DHT22;23275;48.914;12.566;2023-06-24T07:23:06;20.00;99.90
37410;DHT22;23275;48.914;12.566;2023-06-24T07:25:32;20.10;99.90
37410;DHT22;23275;48.914;12.566;2023-06-24T07:27:57;20.20;99.90
37410;DHT22;23275;48.914;12.566;2023-06-24T07:30:23;20.30;99.90
37410;DHT22;23275;48.914;12.566;2023-06-24T07:32:48;20.30;99.90
37410;DHT22;23275;48.914;12.566;2023-06-24T07:35:14;20.50;99.90
37410;DHT22;23275;48.914;12.566;2023-06-24T07:37:41;20.50;99.90
37410;DHT22;23275;48.914;12.566;2023-06-24T07:40:07;20.70;99.90
37410;DHT22;23275;48.914;12.566;2023-06-24T07:42:33;20.80;99.90
37410;DHT22;23275;48.914;12.566;2023-06-24T07:44:59;21.10;99.90
37410;DHT22;23275;48.914;12.566;2023-06-24T07:47:25;21.40;99.90
37410;DHT22;23275;48.914;12.566;2023-06-24T07:49:51;21.60;99.90
37410;DHT22;23275;48.914;12.566;2023-06-24T07:52:16;21.80;99.90
37410;DHT22;23275;48.914;12.566;2023-06-24T07:54:42;21.80;99.90
37410;DHT22;23275;48.914;12.566;2023-06-24T07:57:08;22.10;99.90
37410;DHT22;23275;48.914;12.566;2023-06-24T07:59:33;22.20;99.90
37410;DHT22;23275;48.914;12.566;2023-06-24T08:01:59;22.70;99.90
37410;DHT22;23275;48.914;12.566;2023-06-24T08:04:24;22.80;99.90
37410;DHT22;23275;48.914;12.566;2023-06-24T08:06:50;23.00;99.90
37410;DHT22;23275;48.914;12.566;2023-06-24T08:09:16;23.10;99.90
37410;DHT22;23275;48.914;12.566;2023-06-24T08:11:42;23.00;99.90
37410;DHT22;23275;48.914;12.566;2023-06-24T08:14:08;23.00;99.90
37410;DHT22;23275;48.914;12.566;2023-06-24T08:16:33;23.20;99.90
37410;DHT22;23275;48.914;12.566;2023-06-24T08:18:59;23.30;99.90
37410;DHT22;23275;48.914;12.566;2023-06-24T08:21:24;23.60;99.90
37410;DHT22;23275;48.914;12.566;2023-06-24T08:23:50;24.00;99.90
37410;DHT22;23275;48.914;12.566;2023-06-24T08:26:17;24.30;99.90
37410;DHT22;23275;48.914;12.566;2023-06-24T08:28:42;24.70;99.90
37410;DHT22;23275;48.914;12.566;2023-06-24T08:31:08;25.10;99.90
37410;DHT22;23275;48.914;12.566;2023-06-24T08:33:33;25.50;99.90
37410;DHT22;23275;48.914;12.566;2023-06-24T08:35:59;25.70;99.90
37410;DHT22;23275;48.914;12.566;2023-06-24T08:38:25;26.00;99.90
37410;DHT22;23275;48.914;12.566;2023-06-24T08:40:51;26.50;99.90
37410;DHT22;23275;48.914;12.566;2023-06-24T08:43:17;26.10;99.90
37410;DHT22;23275;48.914;12.566;2023-06-24T08:45:43;25.30;99.90
37410;DHT22;23275;48.914;12.566;2023-06-24T08:48:08;24.60;99.90
37410;DHT22;23275;48.914;12.566;2023-06-24T08:50:43;24.00;99.90
37410;DHT22;23275;48.914;12.566;2023-06-24T08:53:10;23.90;99.90
37410;DHT22;23275;48.914;12.566;2023-06-24T08:55:44;24.00;99.90
37410;DHT22;23275;48.914;12.566;2023-06-24T08:58:11;24.10;99.90
37410;DHT22;23275;48.914;12.566;2023-06-24T09:00:36;24.10;99.90
37410;DHT22;23275;48.914;12.566;2023-06-24T09:03:02;23.80;99.90
37410;DHT22;23275;48.914;12.566;2023-06-24T09:05:27;23.60;99.90
37410;DHT22;23275;48.914;12.566;2023-06-24T09:07:53;23.20;99.90
37410;DHT22;23275;48.914;12.566;2023-06-24T09:10:35;23.10;99.90
37410;DHT22;23275;48.914;12.566;2023-06-24T09:13:02;22.80;99.90
37410;DHT22;23275;48.914;12.566;2023-06-24T09:15:35;22.70;99.90
37410;DHT22;23275;48.914;12.566;2023-06-24T09:18:01;22.50;99.90
37410;DHT22;23275;48.914;12.566;2023-06-24T09:20:27;22.20;99.90
37410;DHT22;23275;48.914;12.566;2023-06-24T09:23:01;22.10;99.90
37410;DHT22;23275;48.914;12.566;2023-06-24T09:25:27;22.30;99.90
37410;DHT22;23275;48.914;12.566;2023-06-24T09:27:53;22.70;99.90
37410;DHT22;23275;48.914;12.566;2023-06-24T09:30:22;23.30;99.90
37410;DHT22;23275;48.914;12.566;2023-06-24T09:32:49;23.80;99.90
37410;DHT22;23275;48.914;12.566;2023-06-24T09:35:18;23.80;99.90
37410;DHT22;23275;48.914;12.566;2023-06-24T09:37:55;23.70;99.90
37410;DHT22;23275;48.914;12.566;2023-06-24T09:40:22;23.90;99.90
37410;DHT22;23275;48.914;12.566;2023-06-24T09:42:59;24.20;99.90
37410;DHT22;23275;48.914;12.566;2023-06-24T09:45:27;24.80;99.90
37410;DHT22;23275;48.914;12.566;2023-06-24T09:47:54;25.40;99.90
37410;DHT22;23275;48.914;12.566;2023-06-24T09:50:20;25.70;99.90
37410;DHT22;23275;48.914;12.566;2023-06-24T09:52:48;26.20;99.90
37410;DHT22;23275;48.914;12.566;2023-06-24T09:55:15;26.10;99.90
37410;DHT22;23275;48.914;12.566;2023-06-24T09:57:46;25.60;99.90
37410;DHT22;23275;48.914;12.566;2023-06-24T10:00:14;25.00;99.90
37410;DHT22;23275;48.914;12.566;2023-06-24T10:02:44;24.60;99.90
37410;DHT22;23275;48.914;12.566;2023-06-24T10:05:11;24.70;99.90
37410;DHT22;23275;48.914;12.566;2023-06-24T10:07:39;25.10;99.90
37410;DHT22;23275;48.914;12.566;2023-06-24T10:10:05;25.60;99.90
37410;DHT22;23275;48.914;12.566;2023-06-24T10:12:31;26.40;99.90
37410;DHT22;23275;48.914;12.566;2023-06-24T10:14:59;27.10;99.90
37410;DHT22;23275;48.914;12.566;2023-06-24T10:17:25;27.80;99.90
37410;DHT22;23275;48.914;12.566;2023-06-24T10:19:52;28.50;99.90
37410;DHT22;23275;48.914;12.566;2023-06-24T10:22:22;29.30;98.90
37410;DHT22;23275;48.914;12.566;2023-06-24T10:24:50;30.00;96.80
37410;DHT22;23275;48.914;12.566;2023-06-24T10:27:18;30.50;95.40
37410;DHT22;23275;48.914;12.566;2023-06-24T10:29:48;31.20;92.90
37410;DHT22;23275;48.914;12.566;2023-06-24T10:32:14;31.00;90.00
37410;DHT22;23275;48.914;12.566;2023-06-24T10:34:41;30.70;84.50
37410;DHT22;23275;48.914;12.566;2023-06-24T10:42:36;30.80;83.50
37410;DHT22;23275;48.914;12.566;2023-06-24T10:45:16;31.90;84.10
37410;DHT22;23275;48.914;12.566;2023-06-24T10:47:47;32.70;79.40
37410;DHT22;23275;48.914;12.566;2023-06-24T10:50:18;33.40;75.70
37410;DHT22;23275;48.914;12.566;2023-06-24T10:52:45;34.20;72.90
37410;DHT22;23275;48.914;12.566;2023-06-24T10:55:18;34.90;69.60
37410;DHT22;23275;48.914;12.566;2023-06-24T10:57:44;34.40;69.90
37410;DHT22;23275;48.914;12.566;2023-06-24T11:00:11;34.10;72.20
37410;DHT22;23275;48.914;12.566;2023-06-24T11:02:37;34.10;65.80
37410;DHT22;23275;48.914;12.566;2023-06-24T11:05:04;34.20;68.10
37410;DHT22;23275;48.914;12.566;2023-06-24T11:07:32;34.60;65.10
37410;DHT22;23275;48.914;12.566;2023-06-24T11:10:12;34.40;64.00
37410;DHT22;23275;48.914;12.566;2023-06-24T11:12:39;34.50;63.30
37410;DHT22;23275;48.914;12.566;2023-06-24T11:15:10;34.90;61.90
37410;DHT22;23275;48.914;12.566;2023-06-24T11:17:36;35.10;60.10
37410;DHT22;23275;48.914;12.566;2023-06-24T11:20:08;34.40;61.10
37410;DHT22;23275;48.914;12.566;2023-06-24T11:22:34;33.20;64.20
37410;DHT22;23275;48.914;12.566;2023-06-24T11:24:59;31.60;67.90
37410;DHT22;23275;48.914;12.566;2023-06-24T11:27:29;31.50;70.60
37410;DHT22;23275;48.914;12.566;2023-06-24T11:29:59;32.10;68.90
37410;DHT22;23275;48.914;12.566;2023-06-24T11:35:06;32.80;66.40
37410;DHT22;23275;48.914;12.566;2023-06-24T11:37:33;33.10;64.70
37410;DHT22;23275;48.914;12.566;2023-06-24T11:40:05;32.90;63.60
37410;DHT22;23275;48.914;12.566;2023-06-24T11:42:32;32.40;66.10
37410;DHT22;23275;48.914;12.566;2023-06-24T11:45:05;31.70;64.80
37410;DHT22;23275;48.914;12.566;2023-06-24T11:47:32;30.50;66.60
37410;DHT22;23275;48.914;12.566;2023-06-24T11:49:59;29.70;69.80
37410;DHT22;23275;48.914;12.566;2023-06-24T11:52:37;29.10;68.70
37410;DHT22;23275;48.914;12.566;2023-06-24T11:55:04;28.50;72.50
37410;DHT22;23275;48.914;12.566;2023-06-24T12:00:37;27.30;72.80
37410;DHT22;23275;48.914;12.566;2023-06-24T12:03:06;27.00;75.70
37410;DHT22;23275;48.914;12.566;2023-06-24T12:05:33;27.20;75.90
37410;DHT22;23275;48.914;12.566;2023-06-24T12:08:09;27.30;75.00
37410;DHT22;23275;48.914;12.566;2023-06-24T12:10:36;26.90;75.10
37410;DHT22;23275;48.914;12.566;2023-06-24T12:13:02;26.50;77.90
37410;DHT22;23275;48.914;12.566;2023-06-24T12:15:29;26.40;82.00
37410;DHT22;23275;48.914;12.566;2023-06-24T12:17:55;26.60;82.80
37410;DHT22;23275;48.914;12.566;2023-06-24T12:20:21;26.80;83.10
37410;DHT22;23275;48.914;12.566;2023-06-24T12:22:48;27.10;81.60
37410;DHT22;23275;48.914;12.566;2023-06-24T12:25:14;27.20;78.70
37410;DHT22;23275;48.914;12.566;2023-06-24T12:27:42;27.30;81.10
37410;DHT22;23275;48.914;12.566;2023-06-24T12:30:08;27.10;79.60
37410;DHT22;23275;48.914;12.566;2023-06-24T12:32:34;26.50;82.70
37410;DHT22;23275;48.914;12.566;2023-06-24T12:35:00;26.40;82.80
37410;DHT22;23275;48.914;12.566;2023-06-24T12:37:31;26.50;82.50
37410;DHT22;23275;48.914;12.566;2023-06-24T12:40:00;26.50;81.90
37410;DHT22;23275;48.914;12.566;2023-06-24T12:42:27;26.60;80.80
37410;DHT22;23275;48.914;12.566;2023-06-24T12:44:52;26.60;80.70
37410;DHT22;23275;48.914;12.566;2023-06-24T12:47:18;26.50;79.90
37410;DHT22;23275;48.914;12.566;2023-06-24T12:49:44;26.50;83.00
37410;DHT22;23275;48.914;12.566;2023-06-24T12:52:10;26.50;80.50
37410;DHT22;23275;48.914;12.566;2023-06-24T12:54:35;26.50;79.40
37410;DHT22;23275;48.914;12.566;2023-06-24T12:57:01;26.50;78.20
37410;DHT22;23275;48.914;12.566;2023-06-24T12:59:27;26.50;79.80
37410;DHT22;23275;48.914;12.566;2023-06-24T13:01:53;26.50;77.40
37410;DHT22;23275;48.914;12.566;2023-06-24T13:04:18;26.60;79.60
37410;DHT22;23275;48.914;12.566;2023-06-24T13:06:46;26.50;76.10
37410;DHT22;23275;48.914;12.566;2023-06-24T13:09:11;26.50;82.80
37410;DHT22;23275;48.914;12.566;2023-06-24T13:11:37;26.60;81.20
37410;DHT22;23275;48.914;12.566;2023-06-24T13:14:03;26.60;79.60
37410;DHT22;23275;48.914;12.566;2023-06-24T13:16:28;26.70;79.30
37410;DHT22;23275;48.914;12.566;2023-06-24T13:18:54;26.70;75.50
37410;DHT22;23275;48.914;12.566;2023-06-24T13:21:20;26.60;76.10
37410;DHT22;23275;48.914;12.566;2023-06-24T13:23:45;26.40;75.80
37410;DHT22;23275;48.914;12.566;2023-06-24T13:26:11;26.50;81.10
37410;DHT22;23275;48.914;12.566;2023-06-24T13:28:37;26.60;80.00
37410;DHT22;23275;48.914;12.566;2023-06-24T13:31:03;26.60;75.70
37410;DHT22;23275;48.914;12.566;2023-06-24T13:33:28;26.30;76.00
37410;DHT22;23275;48.914;12.566;2023-06-24T13:35:55;26.10;79.60
37410;DHT22;23275;48.914;12.566;2023-06-24T13:38:21;25.70;78.50
37410;DHT22;23275;48.914;12.566;2023-06-24T13:40:47;25.50;77.00
37410;DHT22;23275;48.914;12.566;2023-06-24T13:43:13;25.40;80.50
37410;DHT22;23275;48.914;12.566;2023-06-24T13:45:38;25.50;79.50
37410;DHT22;23275;48.914;12.566;2023-06-24T13:48:04;25.70;76.90
37410;DHT22;23275;48.914;12.566;2023-06-24T13:50:29;25.70;80.80
37410;DHT22;23275;48.914;12.566;2023-06-24T13:52:55;25.80;82.70
37410;DHT22;23275;48.914;12.566;2023-06-24T13:55:21;25.90;80.00
37410;DHT22;23275;48.914;12.566;2023-06-24T13:57:46;25.80;83.10
37410;DHT22;23275;48.914;12.566;2023-06-24T14:00:12;25.70;83.50
37410;DHT22;23275;48.914;12.566;2023-06-24T14:02:39;25.40;85.90
37410;DHT22;23275;48.914;12.566;2023-06-24T14:05:05;25.30;83.70
37410;DHT22;23275;48.914;12.566;2023-06-24T14:07:31;25.30;81.00
37410;DHT22;23275;48.914;12.566;2023-06-24T14:09:57;25.50;83.70
37410;DHT22;23275;48.914;12.566;2023-06-24T14:12:22;25.60;79.60
37410;DHT22;23275;48.914;12.566;2023-06-24T14:14:48;25.70;80.70
37410;DHT22;23275;48.914;12.566;2023-06-24T14:17:13;25.70;79.90
37410;DHT22;23275;48.914;12.566;2023-06-24T14:19:40;25.80;80.90
37410;DHT22;23275;48.914;12.566;2023-06-24T14:22:06;25.70;81.70
37410;DHT22;23275;48.914;12.566;2023-06-24T14:24:32;25.50;80.20
37410;DHT22;23275;48.914;12.566;2023-06-24T14:26:58;25.50;82.00
37410;DHT22;23275;48.914;12.566;2023-06-24T14:29:23;25.40;79.90
37410;DHT22;23275;48.914;12.566;2023-06-24T14:31:49;25.30;79.30
37410;DHT22;23275;48.914;12.566;2023-06-24T14:34:15;25.20;82.50
37410;DHT22;23275;48.914;12.566;2023-06-24T14:36:40;25.10;83.20
37410;DHT22;23275;48.914;12.566;2023-06-24T14:39:06;25.00;86.10
37410;DHT22;23275;48.914;12.566;2023-06-24T14:41:32;24.90;84.80
37410;DHT22;23275;48.914;12.566;2023-06-24T14:43:57;24.60;87.70
37410;DHT22;23275;48.914;12.566;2023-06-24T14:46:23;24.50;90.00
37410;DHT22;23275;48.914;12.566;2023-06-24T14:48:48;24.30;87.60
37410;DHT22;23275;48.914;12.566;2023-06-24T14:51:14;24.10;86.80
37410;DHT22;23275;48.914;12.566;2023-06-24T14:53:39;24.00;85.70
37410;DHT22;23275;48.914;12.566;2023-06-24T14:56:06;23.90;83.10
37410;DHT22;23275;48.914;12.566;2023-06-24T14:58:31;23.80;85.70
37410;DHT22;23275;48.914;12.566;2023-06-24T15:00:57;23.80;87.40
37410;DHT22;23275;48.914;12.566;2023-06-24T15:03:22;23.90;90.40
37410;DHT22;23275;48.914;12.566;2023-06-24T15:05:48;24.10;85.30
37410;DHT22;23275;48.914;12.566;2023-06-24T15:08:13;24.20;80.00
37410;DHT22;23275;48.914;12.566;2023-06-24T15:10:39;24.40;81.40
37410;DHT22;23275;48.914;12.566;2023-06-24T15:13:04;24.50;85.30
37410;DHT22;23275;48.914;12.566;2023-06-24T15:15:31;24.50;82.10
37410;DHT22;23275;48.914;12.566;2023-06-24T15:17:56;24.60;80.60
37410;DHT22;23275;48.914;12.566;2023-06-24T15:20:22;24.60;81.50
37410;DHT22;23275;48.914;12.566;2023-06-24T15:22:48;24.60;82.70
37410;DHT22;23275;48.914;12.566;2023-06-24T15:25:13;24.70;83.50
37410;DHT22;23275;48.914;12.566;2023-06-24T15:27:39;24.70;84.60
37410;DHT22;23275;48.914;12.566;2023-06-24T15:30:05;24.80;82.30
37410;DHT22;23275;48.914;12.566;2023-06-24T15:32:31;24.90;83.40
37410;DHT22;23275;48.914;12.566;2023-06-24T15:34:56;24.90;77.60